Aviation Digital Data Service (ADDS)

Output produced by METARs form (0250 UTC 23 February 2017)
found at http://aviationweather.gov/adds/metars/
 
KRDU 222320Z 2300/2324 VRB02KT P6SM SCT050 BKN080 OVC200 
     FM230600 VRB02KT P6SM FEW080 OVC150 
     TEMPO 2309/2312 5SM BR 
     FM231400 18006KT P6SM FEW040 BKN250